createdAt,value
2023-03-14T00:01:25.552Z,5.95
2023-03-14T00:04:05.885Z,5.05
2023-03-14T00:07:11.925Z,5.72
2023-03-14T00:16:50.090Z,4.93
2023-03-14T00:19:35.192Z,5.88
2023-03-14T00:22:22.422Z,4.45
2023-03-14T00:25:09.228Z,4.60
2023-03-14T00:27:46.357Z,5.05
2023-03-14T00:33:47.212Z,4.65
2023-03-14T00:36:30.027Z,4.82
2023-03-14T00:39:04.350Z,4.90
2023-03-14T00:41:40.621Z,4.72
2023-03-14T00:44:22.294Z,4.82
2023-03-14T00:46:55.789Z,4.47
2023-03-14T00:49:24.643Z,4.22
2023-03-14T00:52:00.858Z,5.13
2023-03-14T00:54:52.130Z,4.68
2023-03-14T00:57:32.056Z,4.95
2023-03-14T01:00:10.967Z,4.25
2023-03-14T01:02:40.672Z,4.05
2023-03-14T01:05:24.958Z,4.97
2023-03-14T01:07:58.537Z,4.25
2023-03-14T01:10:33.024Z,4.10
2023-03-14T01:13:14.309Z,4.82
2023-03-14T01:16:15.331Z,4.88
2023-03-14T01:19:04.125Z,3.65
2023-03-14T01:21:43.241Z,4.40
2023-03-14T01:30:34.748Z,3.83
2023-03-14T01:33:24.588Z,4.20
2023-03-14T01:39:17.980Z,3.70
2023-03-14T01:42:07.420Z,3.88
2023-03-14T01:45:04.826Z,3.92
2023-03-14T01:48:09.107Z,3.80
2023-03-14T01:51:16.558Z,3.70
2023-03-14T01:54:15.453Z,3.78
2023-03-14T01:57:02.413Z,3.80
2023-03-14T01:59:44.450Z,4.03
2023-03-14T02:02:58.409Z,4.10
2023-03-14T02:05:52.985Z,4.15
2023-03-14T02:08:42.855Z,5.03
2023-03-14T02:11:37.097Z,3.75
2023-03-14T02:18:30.421Z,4.25
2023-03-14T02:24:38.136Z,3.60
2023-03-14T02:27:44.246Z,4.10
2023-03-14T02:30:37.709Z,4.57
2023-03-14T02:36:03.026Z,4.55
2023-03-14T02:38:45.701Z,3.83
2023-03-14T02:41:26.640Z,3.90
2023-03-14T02:44:15.605Z,3.95
2023-03-14T02:46:50.624Z,4.40
2023-03-14T02:49:37.544Z,3.90
2023-03-14T02:55:09.943Z,3.92
2023-03-14T02:57:42.295Z,3.58
2023-03-14T03:00:47.341Z,4.00
2023-03-14T03:04:27.702Z,3.53
2023-03-14T03:07:29.574Z,3.30
2023-03-14T03:13:39.963Z,3.85
2023-03-14T03:16:50.657Z,3.40
2023-03-14T03:29:31.143Z,3.80
2023-03-14T03:35:25.519Z,3.72
2023-03-14T03:37:57.326Z,3.33
2023-03-14T03:40:37.032Z,3.60
2023-03-14T03:43:28.570Z,3.67
2023-03-14T03:55:21.585Z,3.65
2023-03-14T03:58:41.333Z,4.03
2023-03-14T04:09:06.195Z,4.80
2023-03-14T04:15:05.669Z,3.90
2023-03-14T04:21:18.975Z,4.35
2023-03-14T04:24:11.853Z,3.70
2023-03-14T04:26:53.919Z,3.72
2023-03-14T04:40:27.139Z,5.00
2023-03-14T04:43:26.519Z,5.25
2023-03-14T04:46:00.287Z,5.63
2023-03-14T04:48:39.587Z,6.15
2023-03-14T04:54:41.814Z,4.90
2023-03-14T05:01:52.194Z,5.82
2023-03-14T05:15:49.046Z,4.55
2023-03-14T05:18:38.842Z,4.20
2023-03-14T05:21:23.036Z,4.65
2023-03-14T05:24:05.978Z,4.88
2023-03-14T05:26:39.363Z,4.82
2023-03-14T05:29:20.552Z,4.30
2023-03-14T05:31:48.972Z,4.63
2023-03-14T05:34:36.208Z,4.45
2023-03-14T05:37:30.054Z,4.47
2023-03-14T05:40:07.957Z,4.95
2023-03-14T05:42:39.875Z,4.47
2023-03-14T05:45:24.572Z,4.78
2023-03-14T05:51:20.825Z,5.00
2023-03-14T05:53:48.697Z,5.22
2023-03-14T05:56:17.633Z,4.65
2023-03-14T05:58:44.798Z,4.85
2023-03-14T06:01:12.733Z,4.68
2023-03-14T06:03:40.316Z,4.95
2023-03-14T06:06:08.228Z,5.78
2023-03-14T06:08:36.953Z,3.90
2023-03-14T06:11:09.967Z,4.68
2023-03-14T06:25:20.944Z,3.97
2023-03-14T06:36:55.286Z,3.80
2023-03-14T06:47:10.648Z,4.00
2023-03-14T06:49:45.518Z,6.63
2023-03-14T06:52:50.621Z,4.40
2023-03-14T07:04:46.910Z,4.97
2023-03-14T07:10:06.607Z,5.07
2023-03-14T07:12:36.460Z,4.38
2023-03-14T07:15:17.439Z,4.88
2023-03-14T07:17:45.655Z,3.70
2023-03-14T07:20:23.977Z,5.10
2023-03-14T07:25:53.922Z,7.63
2023-03-14T07:28:28.148Z,6.38
2023-03-14T07:31:01.334Z,4.18
2023-03-14T07:33:35.467Z,4.60
2023-03-14T07:36:08.254Z,4.15
2023-03-14T07:38:42.941Z,4.45
2023-03-14T07:41:24.186Z,6.07
2023-03-14T07:43:58.071Z,5.85
2023-03-14T07:46:32.088Z,4.88
2023-03-14T07:52:28.578Z,3.25
2023-03-14T07:55:05.357Z,3.55
2023-03-14T07:57:38.211Z,2.97
2023-03-14T08:10:00.170Z,3.70
2023-03-14T08:21:24.339Z,3.50
2023-03-14T08:32:54.254Z,1.60
2023-03-14T08:41:13.456Z,1.98
2023-03-14T08:43:42.218Z,2.47
2023-03-14T08:46:09.375Z,3.08
2023-03-14T08:48:36.687Z,2.55
2023-03-14T08:51:07.917Z,1.95
2023-03-14T08:53:35.711Z,2.42
2023-03-14T08:56:02.886Z,2.65
2023-03-14T08:58:30.511Z,2.45
2023-03-14T09:00:59.205Z,2.10
2023-03-14T09:03:27.196Z,2.65
2023-03-14T09:05:54.557Z,1.70
2023-03-14T09:08:21.987Z,2.20
2023-03-14T09:10:49.031Z,2.00
2023-03-14T09:13:16.330Z,2.30
2023-03-14T09:15:43.593Z,1.77
2023-03-14T09:18:12.224Z,2.30
2023-03-14T09:20:40.969Z,1.63
2023-03-14T09:25:35.182Z,4.45
2023-03-14T09:28:03.939Z,3.10
2023-03-14T09:30:31.030Z,1.88
2023-03-14T09:32:58.807Z,2.45
2023-03-14T09:35:27.500Z,1.70
2023-03-14T09:40:22.410Z,1.70
2023-03-14T09:42:52.752Z,2.07
2023-03-14T09:45:28.439Z,1.80
2023-03-14T09:47:59.748Z,2.10
2023-03-14T09:50:34.801Z,1.90
2023-03-14T09:53:05.890Z,2.28
2023-03-14T09:55:36.716Z,2.08
2023-03-14T09:58:13.373Z,2.50
2023-03-14T10:00:41.005Z,2.10
2023-03-14T10:03:27.886Z,2.13
2023-03-14T10:05:57.676Z,2.13
2023-03-14T10:08:25.349Z,2.25
2023-03-14T10:10:54.813Z,2.30
2023-03-14T10:13:25.431Z,2.22
2023-03-14T10:15:54.745Z,1.70
2023-03-14T10:18:25.705Z,2.50
2023-03-14T10:21:07.971Z,2.20
2023-03-14T10:23:36.064Z,2.33
2023-03-14T10:26:09.267Z,1.95
2023-03-14T10:28:41.549Z,1.88
2023-03-14T10:31:08.758Z,2.00
2023-03-14T10:33:38.162Z,1.90
2023-03-14T10:36:18.061Z,1.98
2023-03-14T10:38:45.695Z,1.77
2023-03-14T10:41:19.906Z,1.90
2023-03-14T10:43:51.687Z,1.50
2023-03-14T10:46:21.025Z,2.40
2023-03-14T10:48:50.704Z,2.20
2023-03-14T10:51:27.060Z,2.70
2023-03-14T10:53:58.425Z,2.05
2023-03-14T10:56:27.777Z,1.70
2023-03-14T10:58:58.361Z,1.58
2023-03-14T11:01:42.726Z,1.85
2023-03-14T11:04:18.363Z,1.90
2023-03-14T11:06:53.242Z,1.98
2023-03-14T11:09:25.838Z,1.40
2023-03-14T11:11:52.871Z,1.73
2023-03-14T11:14:32.940Z,1.40
2023-03-14T11:17:09.593Z,1.80
2023-03-14T11:19:44.906Z,1.85
2023-03-14T11:22:23.841Z,1.70
2023-03-14T11:25:05.768Z,1.70
2023-03-14T11:27:43.004Z,1.83
2023-03-14T11:30:23.410Z,2.15
2023-03-14T11:32:57.597Z,2.03
2023-03-14T11:35:31.447Z,1.95
2023-03-14T11:38:11.200Z,2.20
2023-03-14T11:40:40.185Z,2.00
2023-03-14T11:43:14.846Z,1.75
2023-03-14T11:45:44.371Z,4.25
2023-03-14T11:48:33.330Z,2.30
2023-03-14T11:51:06.173Z,2.15
2023-03-14T11:53:44.530Z,2.40
2023-03-14T11:56:17.872Z,1.77
2023-03-14T11:58:56.790Z,1.85
2023-03-14T12:01:33.059Z,2.10
2023-03-14T12:04:05.610Z,1.73
2023-03-14T12:06:41.668Z,1.88
2023-03-14T12:09:11.895Z,2.00
2023-03-14T12:11:43.160Z,3.00
2023-03-14T12:14:23.025Z,1.90
2023-03-14T12:16:57.818Z,2.00
2023-03-14T12:19:34.864Z,2.20
2023-03-14T12:22:25.836Z,1.65
2023-03-14T12:25:01.750Z,2.10
2023-03-14T12:27:48.495Z,1.70
2023-03-14T12:30:25.917Z,2.03
2023-03-14T12:33:32.969Z,1.90
2023-03-14T12:36:03.262Z,2.20
2023-03-14T12:38:44.579Z,2.10
2023-03-14T12:41:22.087Z,1.50
2023-03-14T12:43:49.523Z,1.70
2023-03-14T12:46:22.866Z,1.67
2023-03-14T12:48:54.882Z,1.80
2023-03-14T12:51:30.336Z,2.40
2023-03-14T12:54:22.604Z,2.85
2023-03-14T12:57:26.598Z,1.85
2023-03-14T12:59:57.222Z,2.20
2023-03-14T13:02:27.252Z,1.92
2023-03-14T13:05:03.671Z,2.03
2023-03-14T13:07:34.528Z,2.30
2023-03-14T13:10:19.321Z,1.50
2023-03-14T13:12:51.802Z,1.98
2023-03-14T13:15:24.754Z,1.40
2023-03-14T13:17:54.714Z,2.05
2023-03-14T13:20:28.730Z,1.80
2023-03-14T13:22:55.852Z,2.20
2023-03-14T13:25:24.039Z,2.25
2023-03-14T13:27:56.574Z,2.30
2023-03-14T13:30:26.318Z,2.03
2023-03-14T13:32:55.507Z,1.58
2023-03-14T13:35:26.338Z,1.80
2023-03-14T13:38:10.181Z,2.00
2023-03-14T13:40:38.630Z,1.88
2023-03-14T13:43:15.325Z,1.85
2023-03-14T13:45:46.698Z,1.90
2023-03-14T13:48:16.118Z,2.05
2023-03-14T13:50:55.738Z,2.78
2023-03-14T13:53:23.791Z,1.73
2023-03-14T13:55:52.161Z,2.20
2023-03-14T13:58:26.911Z,1.80
2023-03-14T14:01:00.864Z,1.90
2023-03-14T14:03:29.132Z,2.67
2023-03-14T14:05:59.621Z,1.90
2023-03-14T14:08:28.005Z,1.90
2023-03-14T14:11:01.549Z,2.40
2023-03-14T14:13:34.548Z,1.98
2023-03-14T14:16:04.711Z,2.00
2023-03-14T14:18:33.411Z,2.33
2023-03-14T14:21:01.332Z,2.20
2023-03-14T14:23:30.549Z,1.70
2023-03-14T14:25:58.926Z,2.10
2023-03-14T14:28:28.875Z,2.05
2023-03-14T14:31:07.724Z,1.90
2023-03-14T14:33:42.984Z,2.00
2023-03-14T14:36:18.406Z,2.10
2023-03-14T14:38:51.383Z,2.15
2023-03-14T14:41:20.229Z,2.05
2023-03-14T14:43:47.715Z,1.75
2023-03-14T14:46:20.197Z,2.15
2023-03-14T14:48:50.626Z,1.80
2023-03-14T14:51:26.636Z,1.98
2023-03-14T14:54:15.557Z,2.30
2023-03-14T14:56:49.236Z,2.05
2023-03-14T14:59:23.516Z,2.13
2023-03-14T15:01:57.418Z,1.73
2023-03-14T15:04:24.833Z,1.98
2023-03-14T15:06:53.877Z,2.05
2023-03-14T15:09:21.437Z,1.80
2023-03-14T15:11:49.582Z,2.22
2023-03-14T15:14:16.914Z,2.20
2023-03-14T15:16:44.658Z,2.03
2023-03-14T15:19:24.688Z,2.30
2023-03-14T15:21:53.570Z,1.85
2023-03-14T15:24:20.745Z,1.85
2023-03-14T15:26:48.181Z,1.85
2023-03-14T15:29:15.415Z,2.10
2023-03-14T15:31:44.960Z,1.95
2023-03-14T15:34:13.671Z,2.88
2023-03-14T15:39:08.766Z,1.88
2023-03-14T15:41:36.310Z,2.05
2023-03-14T15:44:03.380Z,2.00
2023-03-14T15:46:31.399Z,2.15
2023-03-14T15:48:58.592Z,1.90
2023-03-14T15:51:27.363Z,2.72
2023-03-14T15:53:54.429Z,2.38
2023-03-14T15:56:25.091Z,2.00
2023-03-14T15:58:52.533Z,2.45
2023-03-14T16:01:20.066Z,3.10
2023-03-14T16:03:47.380Z,3.08
2023-03-14T16:06:15.376Z,2.45
2023-03-14T16:08:43.872Z,2.65
2023-03-14T16:13:39.328Z,2.65
2023-03-14T16:16:08.318Z,2.85
2023-03-14T16:21:06.965Z,2.08
2023-03-14T16:23:37.244Z,2.42
2023-03-14T16:26:08.032Z,2.50
2023-03-14T16:28:35.543Z,3.10
2023-03-14T16:31:04.045Z,3.10
2023-03-14T16:33:33.668Z,3.75
2023-03-14T16:36:09.063Z,2.60
2023-03-14T16:38:42.025Z,2.75
2023-03-14T16:41:13.596Z,2.72
2023-03-14T16:43:41.718Z,3.28
2023-03-14T16:46:19.006Z,2.90
2023-03-14T16:48:46.298Z,2.40
2023-03-14T16:51:14.881Z,2.85
2023-03-14T16:53:42.269Z,2.83
2023-03-14T16:56:11.620Z,2.67
2023-03-14T16:58:39.169Z,2.92
2023-03-14T17:01:11.010Z,2.83
2023-03-14T17:03:39.416Z,3.50
2023-03-14T17:06:07.594Z,3.20
2023-03-14T17:08:35.164Z,3.60
2023-03-14T17:11:02.559Z,3.65
2023-03-14T17:13:30.941Z,3.08
2023-03-14T17:15:59.923Z,4.30
2023-03-14T17:18:29.519Z,4.28
2023-03-14T17:20:57.883Z,4.50
2023-03-14T17:23:26.498Z,4.35
2023-03-14T17:28:26.959Z,4.70
2023-03-14T17:31:04.744Z,3.70
2023-03-14T17:33:31.944Z,5.63
2023-03-14T17:35:59.646Z,4.10
2023-03-14T17:38:27.358Z,4.53
2023-03-14T17:40:54.824Z,4.45
2023-03-14T17:43:22.072Z,4.65
2023-03-14T17:45:57.954Z,5.18
2023-03-14T17:48:26.535Z,5.03
2023-03-14T17:50:55.577Z,4.88
2023-03-14T17:53:24.392Z,5.13
2023-03-14T17:55:55.665Z,4.78
2023-03-14T17:58:27.504Z,5.38
2023-03-14T18:00:58.813Z,5.03
2023-03-14T18:03:30.759Z,5.97
2023-03-14T18:06:04.373Z,7.25
2023-03-14T18:08:31.418Z,8.45
2023-03-14T18:11:04.474Z,12.10
2023-03-14T18:13:31.515Z,12.63
2023-03-14T18:15:59.126Z,14.77
2023-03-14T18:18:33.847Z,15.93
2023-03-14T18:21:03.309Z,16.95
2023-03-14T18:23:31.353Z,20.48
2023-03-14T18:25:59.807Z,19.55
2023-03-14T18:28:27.285Z,17.10
2023-03-14T18:31:02.874Z,14.88
2023-03-14T18:33:37.748Z,14.35
2023-03-14T18:36:09.907Z,13.25
2023-03-14T18:38:42.980Z,13.13
2023-03-14T18:41:20.583Z,14.55
2023-03-14T18:43:53.201Z,13.82
2023-03-14T19:20:57.229Z,10.85
2023-03-14T20:16:45.160Z,6.90
2023-03-14T20:19:54.858Z,6.97
2023-03-14T20:56:59.204Z,9.15
2023-03-14T21:08:48.023Z,7.05
2023-03-14T21:11:56.309Z,7.13
2023-03-14T21:14:27.449Z,7.38
2023-03-14T21:19:59.268Z,6.82
2023-03-14T21:22:45.200Z,6.45
2023-03-14T21:25:18.692Z,6.85
2023-03-14T21:31:44.834Z,6.65
2023-03-14T21:34:37.073Z,6.95
2023-03-14T21:41:21.489Z,8.23
2023-03-14T21:43:52.744Z,8.90
2023-03-14T21:46:24.079Z,9.48
2023-03-14T21:48:58.252Z,8.35
2023-03-14T21:51:40.936Z,13.13
2023-03-14T21:54:26.332Z,9.90
2023-03-14T21:57:21.684Z,8.55
2023-03-14T22:05:49.208Z,5.60
2023-03-14T22:08:36.941Z,6.55
2023-03-14T22:14:42.198Z,6.18
2023-03-14T22:23:17.633Z,7.68
2023-03-14T22:32:01.568Z,5.30
2023-03-14T22:43:16.862Z,5.47
2023-03-14T22:45:47.858Z,4.97
2023-03-14T22:51:29.309Z,4.63
2023-03-14T22:54:14.588Z,5.28
2023-03-14T22:56:45.756Z,4.97
2023-03-14T22:59:26.228Z,4.25
2023-03-14T23:02:02.481Z,4.95
2023-03-14T23:04:30.949Z,4.82
2023-03-14T23:09:51.712Z,5.95
2023-03-14T23:12:30.610Z,5.68
2023-03-14T23:15:13.771Z,5.10
2023-03-14T23:17:48.934Z,5.15
2023-03-14T23:21:34.076Z,4.97
2023-03-14T23:24:15.291Z,5.13
2023-03-14T23:27:15.804Z,6.82
2023-03-14T23:29:48.613Z,5.57
2023-03-14T23:32:41.628Z,4.95
2023-03-14T23:35:15.999Z,4.03
2023-03-14T23:38:03.378Z,4.30
2023-03-14T23:40:31.638Z,4.05
2023-03-14T23:43:09.241Z,4.57
2023-03-14T23:45:38.583Z,3.83
2023-03-14T23:48:42.729Z,4.45
2023-03-14T23:51:22.508Z,3.67
2023-03-14T23:53:51.858Z,3.42
2023-03-14T23:59:06.105Z,4.03
